Time;durP1;ratioP1;P1;durP2;ratioP2;P2;SDS_P1;SDS_P2;PMS_P1;PMS_P2;Temp;Humidity;BMP_temperature;BMP_pressure;BME280_temperature;BME280_humidity;BME280_pressure;Samples;Min_cycle;Max_cycle;Signal;HPM_P1;HPM_P2
2022/05/27 00:01:43;;;;;;;7.03;5.57;;;;;;;;;;6002963;29;20230;-75
2022/05/27 00:05:04;;;;;;;7.57;6.27;;;;;;;;;;6028722;29;20237;-74
2022/05/27 00:08:26;;;;;;;5.73;5.23;;;;;;;;;;6029527;29;20544;-74
2022/05/27 00:11:47;;;;;;;7.20;5.20;;;;;;;;;;6026125;29;20237;-74
2022/05/27 00:15:08;;;;;;;8.73;5.97;;;;;;;;;;6027125;29;20620;-75
2022/05/27 00:18:28;;;;;;;5.50;4.47;;;;;;;;;;6027791;29;20253;-73
2022/05/27 00:21:49;;;;;;;8.13;5.13;;;;;;;;;;6030271;29;20245;-73
2022/05/27 00:25:11;;;;;;;7.63;5.27;;;;;;;;;;6031713;29;20222;-73
2022/05/27 00:28:32;;;;;;;10.70;5.20;;;;;;;;;;6026652;29;20238;-74
2022/05/27 00:31:53;;;;;;;9.67;5.03;;;;;;;;;;6023683;29;20321;-73
2022/05/27 00:35:13;;;;;;;10.77;6.17;;;;;;;;;;6031612;29;20230;-73
2022/05/27 00:38:34;;;;;;;8.23;4.97;;;;;;;;;;6031084;29;20241;-74
2022/05/27 00:41:55;;;;;;;8.87;5.13;;;;;;;;;;6022866;29;20591;-72
2022/05/27 00:45:17;;;;;;;7.57;5.40;;;;;;;;;;6026776;29;20233;-74
2022/05/27 00:48:39;;;;;;;11.37;5.47;;;;;;;;;;6031926;29;20245;-73
2022/05/27 00:52:03;;;;;;;10.50;4.80;;;;;;;;;;6031133;29;20240;-73
2022/05/27 00:55:26;;;;;;;6.07;4.07;;;;;;;;;;6014046;29;20616;-73
2022/05/27 00:58:49;;;;;;;7.07;4.60;;;;;;;;;;6034323;29;20245;-74
2022/05/27 01:02:10;;;;;;;10.10;5.07;;;;;;;;;;6031697;29;20242;-75
2022/05/27 01:05:31;;;;;;;9.50;3.80;;;;;;;;;;6030471;29;20238;-73
2022/05/27 01:08:52;;;;;;;6.17;3.50;;;;;;;;;;6034631;29;20237;-72
2022/05/27 01:12:25;;;;;;;7.47;3.40;;;;;;;;;;6034759;29;20607;-73
2022/05/27 01:15:55;;;;;;;6.57;3.40;;;;;;;;;;6032134;29;20320;-74
2022/05/27 01:23:22;;;;;;;10.93;3.80;;;;;;;;;;6029660;29;20257;-74
2022/05/27 01:26:50;;;;;;;6.07;3.03;;;;;;;;;;6032093;29;20234;-74
2022/05/27 01:30:26;;;;;;;11.00;3.23;;;;;;;;;;6029400;29;20225;-74
2022/05/27 01:33:52;;;;;;;8.83;3.50;;;;;;;;;;6032438;29;20234;-74
2022/05/27 01:37:21;;;;;;;11.23;3.00;;;;;;;;;;6024615;29;20241;-74
2022/05/27 01:40:45;;;;;;;9.47;3.23;;;;;;;;;;6028725;29;20234;-73
2022/05/27 01:44:11;;;;;;;8.03;3.50;;;;;;;;;;6030529;29;20230;-74
2022/05/27 01:47:37;;;;;;;7.03;2.97;;;;;;;;;;6032792;29;20241;-74
2022/05/27 01:51:01;;;;;;;12.50;3.13;;;;;;;;;;6024244;29;20528;-73
2022/05/27 01:54:34;;;;;;;7.17;3.37;;;;;;;;;;6032216;29;21068;-74
2022/05/27 01:57:57;;;;;;;8.63;2.93;;;;;;;;;;6030519;29;20233;-73
2022/05/27 02:01:20;;;;;;;9.50;3.37;;;;;;;;;;6029265;29;20320;-74
2022/05/27 02:04:45;;;;;;;8.00;2.70;;;;;;;;;;6029824;29;20237;-74
2022/05/27 02:08:07;;;;;;;11.93;3.47;;;;;;;;;;6026862;29;20238;-74
2022/05/27 02:11:28;;;;;;;10.67;4.03;;;;;;;;;;6026039;29;20238;-73
2022/05/27 02:14:50;;;;;;;12.97;4.03;;;;;;;;;;6032596;29;20238;-74
2022/05/27 02:18:15;;;;;;;12.30;3.87;;;;;;;;;;6024612;29;20238;-74
2022/05/27 02:21:39;;;;;;;9.17;3.27;;;;;;;;;;6026879;29;20241;-74
2022/05/27 02:25:03;;;;;;;8.93;3.40;;;;;;;;;;6026231;29;20616;-74
2022/05/27 02:28:25;;;;;;;10.90;2.70;;;;;;;;;;6031817;29;20636;-73
2022/05/27 02:31:47;;;;;;;12.07;3.67;;;;;;;;;;6025801;29;20237;-74
2022/05/27 02:35:09;;;;;;;11.20;3.47;;;;;;;;;;6030447;29;20230;-73
2022/05/27 02:38:31;;;;;;;13.37;3.70;;;;;;;;;;6028902;29;20269;-73
2022/05/27 02:41:57;;;;;;;9.73;2.70;;;;;;;;;;6022686;29;20691;-74
2022/05/27 02:45:24;;;;;;;8.13;2.67;;;;;;;;;;6028226;29;20323;-74
2022/05/27 02:48:50;;;;;;;7.20;3.03;;;;;;;;;;6031278;29;20226;-74
2022/05/27 02:52:15;;;;;;;13.03;4.37;;;;;;;;;;6030752;29;20237;-74
2022/05/27 02:55:40;;;;;;;7.63;3.03;;;;;;;;;;6029283;29;21302;-73
2022/05/27 02:59:01;;;;;;;11.83;2.77;;;;;;;;;;6030222;29;20678;-74
2022/05/27 03:02:22;;;;;;;11.90;3.63;;;;;;;;;;6028466;29;20242;-73
2022/05/27 03:05:52;;;;;;;9.13;2.90;;;;;;;;;;6029293;29;20340;-73
2022/05/27 03:09:16;;;;;;;8.57;3.10;;;;;;;;;;6027146;29;20238;-73
2022/05/27 03:12:42;;;;;;;9.83;3.70;;;;;;;;;;6034397;29;20237;-73
2022/05/27 03:16:05;;;;;;;8.83;3.30;;;;;;;;;;6028970;29;20234;-73
2022/05/27 03:19:46;;;;;;;10.00;3.30;;;;;;;;;;6030065;29;20242;-73
2022/05/27 03:23:12;;;;;;;11.60;3.70;;;;;;;;;;6029815;29;20257;-74
2022/05/27 03:26:37;;;;;;;8.67;2.87;;;;;;;;;;6031872;29;20242;-74
2022/05/27 03:30:02;;;;;;;9.10;3.27;;;;;;;;;;6030982;29;20226;-73
2022/05/27 03:33:28;;;;;;;8.23;2.83;;;;;;;;;;6029625;29;20572;-74
2022/05/27 03:36:53;;;;;;;11.17;2.70;;;;;;;;;;6023132;29;20941;-74
2022/05/27 03:40:18;;;;;;;6.67;2.70;;;;;;;;;;6030020;29;20230;-74
2022/05/27 03:43:39;;;;;;;6.63;2.97;;;;;;;;;;6030221;29;20238;-74
2022/05/27 03:47:01;;;;;;;11.67;2.87;;;;;;;;;;6020940;29;21100;-74
2022/05/27 03:50:23;;;;;;;7.40;2.93;;;;;;;;;;6024335;29;20245;-74
2022/05/27 03:57:22;;;;;;;7.20;2.60;;;;;;;;;;6030112;29;20237;-74
2022/05/27 04:00:43;;;;;;;7.50;2.87;;;;;;;;;;6027225;29;20619;-74
2022/05/27 04:04:06;;;;;;;6.00;2.33;;;;;;;;;;6029738;29;20226;-74
2022/05/27 04:07:27;;;;;;;8.07;2.93;;;;;;;;;;6031249;29;20257;-74
2022/05/27 04:10:48;;;;;;;12.40;3.90;;;;;;;;;;6031394;29;20241;-74
2022/05/27 04:14:08;;;;;;;6.43;2.73;;;;;;;;;;6032583;29;20233;-74
2022/05/27 04:17:30;;;;;;;7.97;2.83;;;;;;;;;;6030760;29;20238;-74
2022/05/27 04:20:52;;;;;;;8.03;2.60;;;;;;;;;;6035903;29;20241;-74
2022/05/27 04:24:12;;;;;;;8.57;2.73;;;;;;;;;;6034801;29;20237;-74
2022/05/27 04:27:32;;;;;;;8.70;2.47;;;;;;;;;;6034086;29;20997;-74
2022/05/27 04:30:53;;;;;;;8.37;2.60;;;;;;;;;;6032921;29;20237;-73
2022/05/27 04:34:14;;;;;;;10.47;4.10;;;;;;;;;;6033507;29;20238;-74
2022/05/27 04:37:36;;;;;;;8.63;2.63;;;;;;;;;;6030033;29;20241;-75
2022/05/27 04:40:57;;;;;;;9.53;2.50;;;;;;;;;;6034183;29;20628;-74
2022/05/27 04:44:17;;;;;;;7.43;2.43;;;;;;;;;;6034528;29;20572;-74
2022/05/27 04:47:38;;;;;;;6.97;2.33;;;;;;;;;;6031358;29;20246;-74
2022/05/27 04:50:59;;;;;;;8.67;3.00;;;;;;;;;;6017929;29;20234;-74
2022/05/27 04:54:21;;;;;;;6.73;2.17;;;;;;;;;;6030391;29;20526;-73
2022/05/27 04:57:43;;;;;;;8.70;2.23;;;;;;;;;;6028753;29;20238;-73
2022/05/27 05:01:03;;;;;;;4.20;2.03;;;;;;;;;;6029408;29;20265;-74
2022/05/27 05:04:23;;;;;;;4.50;2.00;;;;;;;;;;6015394;29;20360;-73
2022/05/27 05:07:45;;;;;;;6.33;2.00;;;;;;;;;;6025816;29;20314;-74
2022/05/27 05:11:07;;;;;;;9.63;2.90;;;;;;;;;;6030621;29;20265;-74
2022/05/27 05:14:28;;;;;;;6.57;2.67;;;;;;;;;;6032586;29;20257;-75
2022/05/27 05:17:49;;;;;;;7.40;2.33;;;;;;;;;;6027764;29;20238;-76
2022/05/27 05:21:09;;;;;;;5.13;2.73;;;;;;;;;;6016132;29;21544;-74
2022/05/27 05:24:29;;;;;;;8.90;2.73;;;;;;;;;;6023276;29;20230;-72
2022/05/27 05:27:51;;;;;;;8.83;2.83;;;;;;;;;;6017390;29;20265;-72
2022/05/27 05:31:16;;;;;;;4.27;1.80;;;;;;;;;;6025713;29;20230;-76
2022/05/27 05:34:36;;;;;;;5.83;2.33;;;;;;;;;;6024791;29;20269;-76
2022/05/27 05:37:57;;;;;;;7.33;2.87;;;;;;;;;;6023081;29;20632;-74
2022/05/27 05:41:26;;;;;;;5.53;2.83;;;;;;;;;;6011371;29;20611;-72
2022/05/27 05:44:48;;;;;;;4.43;1.90;;;;;;;;;;6024366;29;20234;-73
2022/05/27 05:48:08;;;;;;;7.27;2.77;;;;;;;;;;6020864;29;20268;-72
2022/05/27 05:51:29;;;;;;;8.53;2.20;;;;;;;;;;6026320;29;20608;-72
2022/05/27 05:54:49;;;;;;;6.60;2.40;;;;;;;;;;6020752;29;20740;-71
2022/05/27 05:58:11;;;;;;;6.83;2.47;;;;;;;;;;6024676;29;20233;-73
2022/05/27 06:01:33;;;;;;;11.87;2.77;;;;;;;;;;6017493;29;20937;-73
2022/05/27 06:04:53;;;;;;;5.87;2.67;;;;;;;;;;6022328;29;20230;-74
2022/05/27 06:08:14;;;;;;;9.10;3.33;;;;;;;;;;6025531;29;20325;-75
2022/05/27 06:11:36;;;;;;;7.43;2.70;;;;;;;;;;6025148;29;20651;-73
2022/05/27 06:14:57;;;;;;;5.83;2.27;;;;;;;;;;6016214;29;20242;-71
2022/05/27 06:18:19;;;;;;;8.30;2.73;;;;;;;;;;6025130;29;20631;-69
2022/05/27 06:21:39;;;;;;;7.43;2.20;;;;;;;;;;6025312;29;20517;-70
2022/05/27 06:25:00;;;;;;;7.87;2.83;;;;;;;;;;6024584;29;20225;-68
2022/05/27 06:35:40;;;;;;;11.17;3.93;;;;;;;;;;6022133;29;20234;-70
2022/05/27 06:39:00;;;;;;;8.17;2.53;;;;;;;;;;6022768;29;20246;-71
2022/05/27 06:42:22;;;;;;;8.73;2.70;;;;;;;;;;6021852;29;20499;-70
2022/05/27 06:45:46;;;;;;;6.53;2.10;;;;;;;;;;6005732;29;20226;-71
2022/05/27 06:49:06;;;;;;;7.13;3.07;;;;;;;;;;6022896;29;20559;-72
2022/05/27 06:52:28;;;;;;;8.63;2.63;;;;;;;;;;6023045;29;20234;-72
2022/05/27 06:55:49;;;;;;;9.73;2.70;;;;;;;;;;6015177;29;20242;-73
2022/05/27 06:59:09;;;;;;;9.37;2.50;;;;;;;;;;6021732;29;20312;-70
2022/05/27 07:02:30;;;;;;;7.83;3.60;;;;;;;;;;6017997;29;20388;-71
2022/05/27 07:05:50;;;;;;;6.13;2.63;;;;;;;;;;6016171;29;20242;-71
2022/05/27 07:09:13;;;;;;;8.07;2.93;;;;;;;;;;6013294;29;20242;-73
2022/05/27 07:12:33;;;;;;;9.53;3.07;;;;;;;;;;6021591;29;20246;-74
2022/05/27 07:15:54;;;;;;;5.50;2.30;;;;;;;;;;6008779;29;20549;-71
2022/05/27 07:19:17;;;;;;;5.50;1.90;;;;;;;;;;6019279;29;20238;-72
2022/05/27 07:22:38;;;;;;;15.60;3.07;;;;;;;;;;6029394;29;20242;-70
2022/05/27 07:26:00;;;;;;;7.57;2.30;;;;;;;;;;6026049;29;20233;-70
2022/05/27 07:29:21;;;;;;;10.60;3.93;;;;;;;;;;6025425;29;20234;-69
2022/05/27 07:32:42;;;;;;;8.23;2.43;;;;;;;;;;6023208;29;20341;-70
2022/05/27 07:36:02;;;;;;;5.93;2.30;;;;;;;;;;6014639;29;20242;-71
2022/05/27 07:39:23;;;;;;;9.10;2.77;;;;;;;;;;6017542;29;20279;-71
2022/05/27 07:42:45;;;;;;;8.00;2.93;;;;;;;;;;6027405;29;21029;-70
2022/05/27 07:46:05;;;;;;;5.83;2.60;;;;;;;;;;6023209;29;20229;-70
2022/05/27 07:49:26;;;;;;;6.70;2.63;;;;;;;;;;6028378;29;20810;-70
2022/05/27 07:52:47;;;;;;;5.67;1.70;;;;;;;;;;6026246;29;20239;-71
2022/05/27 07:56:08;;;;;;;8.57;2.80;;;;;;;;;;6023507;29;21247;-68
2022/05/27 07:59:30;;;;;;;11.00;2.53;;;;;;;;;;6029461;29;20276;-69
2022/05/27 08:02:51;;;;;;;7.40;2.80;;;;;;;;;;6027166;29;20329;-69
2022/05/27 08:06:11;;;;;;;10.00;3.33;;;;;;;;;;6024996;29;20320;-70
2022/05/27 08:09:32;;;;;;;9.37;2.60;;;;;;;;;;6025080;29;20226;-69
2022/05/27 08:12:53;;;;;;;6.27;2.63;;;;;;;;;;6029501;29;21239;-70
2022/05/27 08:16:14;;;;;;;6.07;2.67;;;;;;;;;;6024668;29;21114;-68
2022/05/27 08:19:35;;;;;;;7.77;2.50;;;;;;;;;;6024880;29;20245;-69
2022/05/27 08:22:57;;;;;;;5.40;2.50;;;;;;;;;;6032019;29;20230;-71
2022/05/27 08:26:17;;;;;;;7.63;2.30;;;;;;;;;;6029011;29;20611;-69
2022/05/27 08:29:39;;;;;;;4.90;2.43;;;;;;;;;;6030307;29;20234;-69
2022/05/27 08:33:01;;;;;;;6.77;2.20;;;;;;;;;;6025224;29;20242;-68
2022/05/27 08:40:01;;;;;;;7.03;1.80;;;;;;;;;;6036683;29;20238;-70
2022/05/27 08:43:27;;;;;;;7.63;2.57;;;;;;;;;;6032949;29;20238;-72
2022/05/27 08:46:54;;;;;;;6.33;1.77;;;;;;;;;;6023194;29;20237;-70
2022/05/27 08:50:19;;;;;;;5.07;1.90;;;;;;;;;;6021375;29;21868;-68
2022/05/27 08:53:43;;;;;;;7.20;2.93;;;;;;;;;;6027522;29;20234;-68
2022/05/27 09:00:42;;;;;;;9.23;2.40;;;;;;;;;;6031057;29;20269;-69
2022/05/27 09:04:08;;;;;;;5.03;2.50;;;;;;;;;;6030251;29;20234;-68
2022/05/27 09:07:37;;;;;;;8.60;2.70;;;;;;;;;;6032660;29;20234;-68
2022/05/27 09:11:00;;;;;;;7.50;2.20;;;;;;;;;;6033685;29;20259;-69
2022/05/27 09:14:21;;;;;;;7.23;2.67;;;;;;;;;;6029768;29;20264;-68
2022/05/27 09:17:44;;;;;;;8.00;2.63;;;;;;;;;;6017502;29;20262;-69
2022/05/27 09:21:12;;;;;;;10.17;3.87;;;;;;;;;;6033278;29;20234;-67
2022/05/27 09:24:42;;;;;;;7.97;2.80;;;;;;;;;;6039912;29;20261;-68
2022/05/27 09:28:06;;;;;;;11.70;2.70;;;;;;;;;;6031702;29;20269;-67
2022/05/27 09:31:30;;;;;;;8.50;3.03;;;;;;;;;;6024671;29;20261;-69
2022/05/27 09:34:51;;;;;;;7.20;2.50;;;;;;;;;;6031444;29;20242;-68
2022/05/27 09:38:14;;;;;;;6.57;3.07;;;;;;;;;;6029084;29;20233;-68
2022/05/27 09:41:39;;;;;;;6.47;2.97;;;;;;;;;;6031066;29;20238;-68
2022/05/27 09:45:00;;;;;;;12.30;3.20;;;;;;;;;;6028311;29;21289;-67
2022/05/27 09:48:20;;;;;;;15.20;4.40;;;;;;;;;;6019195;29;20242;-68
2022/05/27 09:51:41;;;;;;;10.67;4.33;;;;;;;;;;6010031;29;20233;-68
2022/05/27 09:55:13;;;;;;;11.97;3.07;;;;;;;;;;6032825;29;20250;-67
2022/05/27 09:58:36;;;;;;;8.63;2.87;;;;;;;;;;6031789;29;20234;-67
2022/05/27 10:02:15;;;;;;;8.17;2.70;;;;;;;;;;6029548;29;20241;-69
2022/05/27 10:05:36;;;;;;;10.67;3.33;;;;;;;;;;6019900;29;20237;-68
2022/05/27 10:08:58;;;;;;;11.67;3.83;;;;;;;;;;6028641;29;20234;-69
2022/05/27 10:12:27;;;;;;;6.23;2.70;;;;;;;;;;6026424;29;20229;-67
2022/05/27 10:15:50;;;;;;;6.83;2.67;;;;;;;;;;6028950;29;20257;-69
2022/05/27 10:19:13;;;;;;;10.63;3.43;;;;;;;;;;6029269;29;20247;-69
2022/05/27 10:22:33;;;;;;;8.20;2.50;;;;;;;;;;6023693;29;20245;-67
2022/05/27 10:25:54;;;;;;;4.77;2.47;;;;;;;;;;6032018;29;20961;-67
2022/05/27 10:29:16;;;;;;;5.33;2.07;;;;;;;;;;6033835;29;20226;-68
2022/05/27 10:32:39;;;;;;;6.53;3.67;;;;;;;;;;6029302;29;20233;-68
2022/05/27 10:36:01;;;;;;;6.20;2.00;;;;;;;;;;6027670;29;20909;-69
2022/05/27 10:39:27;;;;;;;10.87;3.20;;;;;;;;;;6024215;29;20862;-68
2022/05/27 10:42:52;;;;;;;7.37;3.00;;;;;;;;;;6033669;29;20242;-70
2022/05/27 10:46:15;;;;;;;9.50;2.83;;;;;;;;;;6022865;29;20253;-73
2022/05/27 10:49:52;;;;;;;7.82;2.78;;;;;;;;;;6038306;29;20695;-74
2022/05/27 10:53:22;;;;;;;7.47;3.00;;;;;;;;;;6030546;29;20655;-72
2022/05/27 11:02:03;;;;;;;9.13;3.33;;;;;;;;;;6031812;29;20305;-73
2022/05/27 11:04:14;;;;;;;7.43;2.43;;;;;;;;;;6050698;29;20234;-73
2022/05/27 11:07:38;;;;;;;10.70;4.07;;;;;;;;;;6046652;29;20513;-72
2022/05/27 11:11:06;;;;;;;13.17;4.00;;;;;;;;;;6046245;29;20431;-73
2022/05/27 11:18:15;;;;;;;8.73;2.90;;;;;;;;;;6046275;29;20505;-73
2022/05/27 11:21:41;;;;;;;7.37;2.80;;;;;;;;;;6045992;29;20246;-73
2022/05/27 11:25:10;;;;;;;15.10;3.33;;;;;;;;;;6046305;29;20245;-73
2022/05/27 11:28:44;;;;;;;12.03;3.43;;;;;;;;;;6047848;29;20237;-72
2022/05/27 11:32:08;;;;;;;17.13;4.03;;;;;;;;;;6044456;29;20226;-73
2022/05/27 11:35:36;;;;;;;8.13;2.70;;;;;;;;;;6042598;29;20603;-72
2022/05/27 11:39:02;;;;;;;7.00;3.20;;;;;;;;;;6048621;29;20242;-73
2022/05/27 11:42:37;;;;;;;11.97;3.83;;;;;;;;;;6047060;29;20328;-72
2022/05/27 11:46:02;;;;;;;8.23;3.50;;;;;;;;;;6047581;29;20604;-71
2022/05/27 11:49:35;;;;;;;6.43;3.57;;;;;;;;;;6046152;29;20229;-73
2022/05/27 11:53:02;;;;;;;6.77;3.30;;;;;;;;;;6047043;29;20233;-73
2022/05/27 11:56:26;;;;;;;14.23;4.53;;;;;;;;;;6038352;29;20234;-72
2022/05/27 11:59:50;;;;;;;9.13;3.23;;;;;;;;;;6048904;29;20226;-72
2022/05/27 12:03:11;;;;;;;8.20;2.90;;;;;;;;;;6048665;29;20648;-72
2022/05/27 12:06:33;;;;;;;11.20;4.17;;;;;;;;;;6044550;29;20306;-71
2022/05/27 12:09:55;;;;;;;8.67;3.57;;;;;;;;;;6045786;29;20233;-73
2022/05/27 12:13:23;;;;;;;14.47;4.03;;;;;;;;;;6045434;29;20234;-74
2022/05/27 12:16:48;;;;;;;10.33;3.33;;;;;;;;;;6046402;29;20238;-73
2022/05/27 12:20:10;;;;;;;11.87;3.73;;;;;;;;;;6041659;29;20901;-74
2022/05/27 12:23:31;;;;;;;11.37;4.03;;;;;;;;;;6040226;29;20234;-72
2022/05/27 12:26:53;;;;;;;7.23;3.10;;;;;;;;;;6039536;29;20229;-73
2022/05/27 12:30:14;;;;;;;15.10;4.43;;;;;;;;;;6047568;29;20234;-74
2022/05/27 12:33:37;;;;;;;9.17;3.87;;;;;;;;;;6052557;29;20234;-74
2022/05/27 12:36:59;;;;;;;8.98;2.65;;;;;;;;;;6044333;29;20241;-74
2022/05/27 12:40:25;;;;;;;7.53;2.17;;;;;;;;;;6044304;29;20262;-73
2022/05/27 12:43:58;;;;;;;8.63;2.80;;;;;;;;;;6042329;29;20245;-74
2022/05/27 12:47:20;;;;;;;12.37;3.77;;;;;;;;;;6049439;29;20599;-73
2022/05/27 12:50:44;;;;;;;9.87;2.70;;;;;;;;;;6040687;29;20638;-72
2022/05/27 12:54:05;;;;;;;10.93;4.80;;;;;;;;;;6038513;29;20239;-73
2022/05/27 13:01:05;;;;;;;8.10;2.63;;;;;;;;;;6041760;29;20238;-73
2022/05/27 13:04:44;;;;;;;6.43;2.83;;;;;;;;;;6052978;29;20242;-72
2022/05/27 13:08:21;;;;;;;6.60;2.75;;;;;;;;;;6044216;29;20230;-73
2022/05/27 13:11:44;;;;;;;8.00;3.00;;;;;;;;;;6049120;29;20226;-73
2022/05/27 13:15:09;;;;;;;12.63;3.42;;;;;;;;;;6050274;29;20333;-74
2022/05/27 13:18:38;;;;;;;4.90;2.20;;;;;;;;;;6050215;29;20491;-73
2022/05/27 13:22:00;;;;;;;8.82;2.67;;;;;;;;;;6044574;29;20253;-73
2022/05/27 13:25:27;;;;;;;7.00;2.57;;;;;;;;;;6052400;29;20721;-73
2022/05/27 13:28:52;;;;;;;10.40;2.95;;;;;;;;;;6010985;29;20238;-74
2022/05/27 13:32:16;;;;;;;8.70;2.08;;;;;;;;;;6032264;29;20242;-73
2022/05/27 13:35:37;;;;;;;5.93;2.35;;;;;;;;;;6030127;29;20238;-74
2022/05/27 13:38:59;;;;;;;5.72;1.77;;;;;;;;;;6035454;29;20564;-73
2022/05/27 13:42:27;;;;;;;6.40;2.15;;;;;;;;;;6032016;29;20819;-73
2022/05/27 13:45:49;;;;;;;7.18;2.53;;;;;;;;;;6032342;29;20230;-73
2022/05/27 13:49:12;;;;;;;5.35;2.55;;;;;;;;;;6037292;29;20267;-73
2022/05/27 13:52:34;;;;;;;6.13;2.50;;;;;;;;;;6043703;29;20242;-72
2022/05/27 13:55:56;;;;;;;8.70;2.45;;;;;;;;;;6041887;29;20234;-71
2022/05/27 13:59:24;;;;;;;8.27;2.50;;;;;;;;;;6036569;29;20309;-70
2022/05/27 14:02:46;;;;;;;17.97;3.20;;;;;;;;;;6038162;29;20308;-69
2022/05/27 14:06:08;;;;;;;9.43;3.90;;;;;;;;;;6038225;29;20238;-71
2022/05/27 14:09:30;;;;;;;11.20;4.47;;;;;;;;;;6041363;29;20616;-70
2022/05/27 14:12:52;;;;;;;11.70;3.83;;;;;;;;;;6035911;29;20239;-70
2022/05/27 14:16:22;;;;;;;5.97;2.27;;;;;;;;;;6041261;29;20242;-70
2022/05/27 14:19:44;;;;;;;8.37;2.57;;;;;;;;;;6032794;29;20237;-70
2022/05/27 14:23:04;;;;;;;10.23;2.63;;;;;;;;;;6039331;29;20237;-70
2022/05/27 14:26:26;;;;;;;7.33;2.30;;;;;;;;;;6042054;29;20258;-69
2022/05/27 14:29:46;;;;;;;7.47;2.50;;;;;;;;;;6042181;29;20249;-70
2022/05/27 14:33:21;;;;;;;10.67;3.17;;;;;;;;;;6029623;29;20229;-70
2022/05/27 14:36:43;;;;;;;11.32;3.10;;;;;;;;;;6034941;29;20237;-70
2022/05/27 14:40:08;;;;;;;7.57;2.75;;;;;;;;;;6034949;29;20241;-70
2022/05/27 14:43:35;;;;;;;9.13;2.40;;;;;;;;;;6041005;29;20425;-70
2022/05/27 14:47:04;;;;;;;6.20;2.20;;;;;;;;;;6035945;29;20242;-72
2022/05/27 14:50:33;;;;;;;10.00;3.00;;;;;;;;;;6039777;29;20245;-70
2022/05/27 14:53:54;;;;;;;9.10;3.17;;;;;;;;;;6035603;29;20237;-70
2022/05/27 14:57:17;;;;;;;14.27;5.60;;;;;;;;;;6034588;29;20230;-70
2022/05/27 15:00:43;;;;;;;7.37;2.83;;;;;;;;;;6029749;29;21220;-71
2022/05/27 15:04:17;;;;;;;10.03;2.93;;;;;;;;;;6037399;29;20237;-70
2022/05/27 15:07:45;;;;;;;9.23;3.13;;;;;;;;;;6036641;29;20241;-69
2022/05/27 15:11:06;;;;;;;12.30;3.40;;;;;;;;;;6034503;29;20238;-69
2022/05/27 15:14:28;;;;;;;7.40;2.23;;;;;;;;;;6038728;29;20336;-70
2022/05/27 15:17:55;;;;;;;7.77;2.53;;;;;;;;;;6022948;29;20233;-71
2022/05/27 15:21:18;;;;;;;5.27;2.30;;;;;;;;;;6038973;29;20237;-70
2022/05/27 15:24:42;;;;;;;8.03;3.27;;;;;;;;;;6041085;29;20268;-70
2022/05/27 15:35:25;;;;;;;4.40;1.77;;;;;;;;;;6030413;29;20229;-69
2022/05/27 15:38:47;;;;;;;7.60;2.33;;;;;;;;;;6036821;29;20229;-69
2022/05/27 15:42:11;;;;;;;4.97;2.00;;;;;;;;;;6032147;29;20574;-68
2022/05/27 15:45:32;;;;;;;6.87;1.90;;;;;;;;;;6032209;29;20246;-68
2022/05/27 15:48:52;;;;;;;8.57;2.33;;;;;;;;;;6031973;29;20233;-68
2022/05/27 15:52:13;;;;;;;9.07;2.73;;;;;;;;;;6038350;29;20238;-68
2022/05/27 15:55:34;;;;;;;8.40;2.20;;;;;;;;;;6030152;29;20878;-68
2022/05/27 15:58:56;;;;;;;5.70;1.90;;;;;;;;;;6041745;29;20324;-69
2022/05/27 16:02:17;;;;;;;6.30;2.23;;;;;;;;;;6041613;29;20324;-69
2022/05/27 16:05:38;;;;;;;6.90;2.10;;;;;;;;;;6045925;29;20635;-68
2022/05/27 16:08:58;;;;;;;7.03;2.50;;;;;;;;;;6046787;29;20614;-68
2022/05/27 16:12:19;;;;;;;9.27;2.83;;;;;;;;;;6040763;29;20233;-68
2022/05/27 16:15:40;;;;;;;5.83;2.50;;;;;;;;;;6039627;29;20234;-69
2022/05/27 16:19:00;;;;;;;6.80;2.83;;;;;;;;;;6030533;29;20242;-68
2022/05/27 16:22:20;;;;;;;8.73;4.00;;;;;;;;;;6034656;29;20719;-68
2022/05/27 16:25:41;;;;;;;6.43;3.20;;;;;;;;;;6037623;29;20238;-69
2022/05/27 16:29:02;;;;;;;6.00;2.23;;;;;;;;;;6042437;29;20241;-68
2022/05/27 16:32:24;;;;;;;4.23;2.33;;;;;;;;;;6034973;29;20612;-68
2022/05/27 16:35:45;;;;;;;7.70;1.73;;;;;;;;;;6042657;29;20229;-67
2022/05/27 16:39:06;;;;;;;4.07;2.13;;;;;;;;;;6042030;29;20230;-67
2022/05/27 16:42:27;;;;;;;5.30;2.17;;;;;;;;;;6041713;29;21350;-68
2022/05/27 16:45:48;;;;;;;2.87;2.03;;;;;;;;;;6039645;29;20253;-68
2022/05/27 16:49:10;;;;;;;5.47;2.83;;;;;;;;;;6039658;29;20675;-68
2022/05/27 16:52:30;;;;;;;3.27;1.73;;;;;;;;;;6043556;29;20341;-68
2022/05/27 16:55:51;;;;;;;5.57;2.27;;;;;;;;;;6039358;29;20635;-67
2022/05/27 16:59:12;;;;;;;7.10;1.93;;;;;;;;;;6038072;29;20234;-68
2022/05/27 17:02:32;;;;;;;9.67;2.93;;;;;;;;;;6039541;29;20564;-68
2022/05/27 17:05:54;;;;;;;9.57;3.10;;;;;;;;;;6039095;29;20238;-68
2022/05/27 17:09:15;;;;;;;6.07;2.83;;;;;;;;;;6043153;29;20241;-68
2022/05/27 17:12:36;;;;;;;10.40;6.23;;;;;;;;;;6032077;29;20238;-67
2022/05/27 17:15:57;;;;;;;7.90;2.90;;;;;;;;;;6035022;29;20576;-68
2022/05/27 17:19:17;;;;;;;13.70;3.90;;;;;;;;;;6035577;29;20257;-69
2022/05/27 17:22:42;;;;;;;11.77;4.07;;;;;;;;;;6036068;29;20262;-68
2022/05/27 17:26:03;;;;;;;7.90;3.27;;;;;;;;;;6041915;29;21115;-68
2022/05/27 17:29:24;;;;;;;7.43;3.50;;;;;;;;;;6042194;29;20344;-69
2022/05/27 17:32:44;;;;;;;10.03;3.40;;;;;;;;;;6039315;29;20226;-69
2022/05/27 17:36:05;;;;;;;8.57;2.23;;;;;;;;;;6020699;29;20860;-68
2022/05/27 17:39:27;;;;;;;10.07;2.67;;;;;;;;;;5988799;29;1060639;-68
2022/05/27 17:42:47;;;;;;;6.23;2.57;;;;;;;;;;6023985;29;20241;-69
2022/05/27 17:46:09;;;;;;;8.67;2.80;;;;;;;;;;6029473;29;20242;-69
2022/05/27 17:53:07;;;;;;;5.70;2.33;;;;;;;;;;6031310;29;20249;-69
2022/05/27 17:56:30;;;;;;;9.47;2.73;;;;;;;;;;6029840;29;20245;-69
2022/05/27 17:59:51;;;;;;;5.13;1.97;;;;;;;;;;6027818;29;20245;-69
2022/05/27 18:03:12;;;;;;;6.53;1.90;;;;;;;;;;6023773;29;20238;-69
2022/05/27 18:06:32;;;;;;;6.33;2.53;;;;;;;;;;6025665;29;20242;-68
2022/05/27 18:09:53;;;;;;;10.57;2.67;;;;;;;;;;6024397;29;20233;-68
2022/05/27 18:13:15;;;;;;;3.33;1.43;;;;;;;;;;6026311;29;20241;-68
2022/05/27 18:16:36;;;;;;;4.20;1.00;;;;;;;;;;6029528;29;20329;-67
2022/05/27 18:19:56;;;;;;;2.20;1.67;;;;;;;;;;6041408;29;20229;-67
2022/05/27 18:23:17;;;;;;;3.93;1.47;;;;;;;;;;6044989;29;20241;-68
2022/05/27 18:26:38;;;;;;;2.83;1.57;;;;;;;;;;6044537;29;20261;-68
2022/05/27 18:29:59;;;;;;;3.67;1.80;;;;;;;;;;6030507;29;20427;-68
2022/05/27 18:33:20;;;;;;;2.73;1.40;;;;;;;;;;6045119;29;20826;-68
2022/05/27 18:36:41;;;;;;;2.23;0.90;;;;;;;;;;6036679;29;20238;-67
2022/05/27 18:40:01;;;;;;;2.10;1.20;;;;;;;;;;6042076;29;20241;-69
2022/05/27 18:43:22;;;;;;;5.53;1.43;;;;;;;;;;6041707;29;20272;-67
2022/05/27 18:46:44;;;;;;;6.50;2.37;;;;;;;;;;6041287;29;20606;-68
2022/05/27 18:50:05;;;;;;;3.97;2.33;;;;;;;;;;6035834;29;20582;-68
2022/05/27 18:53:26;;;;;;;1.90;1.47;;;;;;;;;;6039569;29;20345;-68
2022/05/27 18:56:47;;;;;;;3.87;1.83;;;;;;;;;;6036562;29;20234;-68
2022/05/27 19:00:09;;;;;;;5.13;1.67;;;;;;;;;;6039366;29;20242;-68
2022/05/27 19:03:31;;;;;;;3.63;2.10;;;;;;;;;;6042893;29;20261;-69
2022/05/27 19:06:52;;;;;;;5.03;2.07;;;;;;;;;;6039896;29;20269;-69
2022/05/27 19:10:14;;;;;;;4.00;1.80;;;;;;;;;;6035370;29;20238;-68
2022/05/27 19:13:35;;;;;;;3.67;1.97;;;;;;;;;;6036198;29;20241;-69
2022/05/27 19:16:55;;;;;;;6.60;2.57;;;;;;;;;;6040158;29;20253;-67
2022/05/27 19:23:56;;;;;;;6.40;2.83;;;;;;;;;;6035492;29;20262;-68
2022/05/27 19:27:17;;;;;;;4.33;2.30;;;;;;;;;;6025086;29;20268;-69
2022/05/27 19:30:38;;;;;;;9.07;2.40;;;;;;;;;;6037273;29;20238;-66
2022/05/27 19:33:58;;;;;;;8.07;2.73;;;;;;;;;;6041418;29;20238;-67
2022/05/27 19:37:20;;;;;;;8.93;2.83;;;;;;;;;;6041962;29;20542;-68
2022/05/27 19:40:41;;;;;;;5.00;2.03;;;;;;;;;;6039735;29;20242;-69
2022/05/27 19:44:02;;;;;;;6.23;2.37;;;;;;;;;;6028285;29;20502;-68
2022/05/27 19:47:23;;;;;;;8.53;2.57;;;;;;;;;;6035275;29;20247;-68
2022/05/27 19:50:44;;;;;;;10.03;2.53;;;;;;;;;;6030230;29;20528;-68
2022/05/27 19:54:06;;;;;;;8.73;2.83;;;;;;;;;;6042676;29;20555;-68
2022/05/27 20:01:05;;;;;;;10.93;2.83;;;;;;;;;;6026534;29;20234;-68
2022/05/27 20:08:03;;;;;;;10.93;2.77;;;;;;;;;;6037446;29;20276;-67
2022/05/27 20:11:26;;;;;;;14.57;3.20;;;;;;;;;;6036598;29;20810;-67
2022/05/27 20:14:47;;;;;;;11.47;3.57;;;;;;;;;;6044018;29;20628;-68
2022/05/27 20:18:08;;;;;;;11.33;4.07;;;;;;;;;;6021564;29;20566;-68
2022/05/27 20:21:28;;;;;;;4.73;2.10;;;;;;;;;;6043846;29;20628;-69
2022/05/27 20:24:50;;;;;;;7.57;2.80;;;;;;;;;;6042370;29;20234;-68
2022/05/27 20:28:12;;;;;;;7.13;3.23;;;;;;;;;;6023460;29;20233;-68
2022/05/27 20:31:33;;;;;;;3.80;1.63;;;;;;;;;;6041871;29;20257;-68
2022/05/27 20:34:53;;;;;;;4.27;2.13;;;;;;;;;;6038951;29;20333;-68
2022/05/27 20:38:14;;;;;;;3.40;2.00;;;;;;;;;;6037100;29;20234;-68
2022/05/27 20:41:35;;;;;;;6.00;2.30;;;;;;;;;;6036414;29;20249;-68
2022/05/27 20:44:59;;;;;;;10.70;2.47;;;;;;;;;;6031964;29;20234;-68
2022/05/27 20:48:20;;;;;;;6.63;2.20;;;;;;;;;;6044125;29;20491;-68
2022/05/27 20:51:41;;;;;;;6.43;2.73;;;;;;;;;;6038799;29;20336;-68
2022/05/27 20:55:02;;;;;;;5.90;2.53;;;;;;;;;;6034516;29;20514;-68
2022/05/27 20:58:22;;;;;;;5.17;3.33;;;;;;;;;;6026318;29;20254;-68
2022/05/27 21:01:45;;;;;;;11.47;2.73;;;;;;;;;;6033469;29;20234;-67
2022/05/27 21:05:06;;;;;;;6.53;2.43;;;;;;;;;;6037616;29;20242;-68
2022/05/27 21:12:05;;;;;;;11.90;3.30;;;;;;;;;;6041743;29;20508;-67